createdAt,value
2023-04-29T00:00:26.024Z,9.30
2023-04-29T00:04:29.453Z,9.30
2023-04-29T00:08:34.076Z,9.20
2023-04-29T00:12:38.360Z,9.20
2023-04-29T00:16:41.510Z,9.10
2023-04-29T00:20:44.956Z,9.30
2023-04-29T00:24:49.529Z,9.30
2023-04-29T00:28:52.860Z,9.30
2023-04-29T00:32:56.305Z,9.20
2023-04-29T00:36:59.554Z,9.00
2023-04-29T00:41:04.963Z,9.00
2023-04-29T00:45:09.548Z,9.10
2023-04-29T00:49:14.757Z,9.20
2023-04-29T00:53:19.089Z,9.20
2023-04-29T00:57:24.064Z,9.10
2023-04-29T01:01:29.122Z,8.90
2023-04-29T01:05:33.104Z,8.80
2023-04-29T01:09:54.982Z,8.70
2023-04-29T01:14:02.075Z,8.60
2023-04-29T01:18:12.206Z,8.50
2023-04-29T01:22:17.733Z,8.40
2023-04-29T01:26:22.545Z,8.60
2023-04-29T01:30:38.183Z,8.60
2023-04-29T01:34:52.016Z,8.70
2023-04-29T01:39:05.794Z,8.70
2023-04-29T01:43:12.886Z,8.60
2023-04-29T01:47:16.275Z,8.60
2023-04-29T01:51:19.441Z,8.60
2023-04-29T01:55:23.137Z,8.60
2023-04-29T01:59:29.697Z,8.60
2023-04-29T02:03:34.599Z,8.70
2023-04-29T02:07:38.136Z,8.80
2023-04-29T02:11:41.254Z,8.80
2023-04-29T02:15:45.903Z,8.70
2023-04-29T02:19:49.331Z,8.60
2023-04-29T02:23:54.434Z,8.70
2023-04-29T02:27:57.620Z,8.50
2023-04-29T02:32:02.409Z,8.30
2023-04-29T02:36:06.352Z,8.20
2023-04-29T02:40:11.508Z,8.00
2023-04-29T02:44:14.648Z,7.90
2023-04-29T02:48:19.271Z,7.90
2023-04-29T02:52:22.607Z,7.80
2023-04-29T02:56:25.895Z,7.70
2023-04-29T03:00:29.226Z,7.50
2023-04-29T03:04:33.909Z,7.40
2023-04-29T03:08:37.233Z,7.40
2023-04-29T03:12:40.609Z,7.30
2023-04-29T03:16:44.455Z,7.30
2023-04-29T03:20:49.232Z,7.20
2023-04-29T03:24:52.564Z,7.30
2023-04-29T03:28:55.812Z,7.30
2023-04-29T03:32:59.124Z,7.40
2023-04-29T03:37:03.826Z,7.50
2023-04-29T03:41:07.654Z,7.60
2023-04-29T03:45:13.301Z,7.60
2023-04-29T03:49:16.603Z,7.60
2023-04-29T03:53:22.089Z,7.70
2023-04-29T03:57:25.479Z,7.70
2023-04-29T04:01:28.652Z,7.80
2023-04-29T04:05:33.075Z,7.70
2023-04-29T04:09:37.668Z,7.70
2023-04-29T04:13:41.349Z,7.70
2023-04-29T04:17:45.071Z,7.80
2023-04-29T04:21:48.345Z,7.70
2023-04-29T04:25:53.998Z,7.70
2023-04-29T04:29:57.444Z,7.70
2023-04-29T04:34:00.849Z,7.80
2023-04-29T04:38:04.084Z,8.00
2023-04-29T04:42:08.675Z,8.10
2023-04-29T04:46:13.684Z,8.30
2023-04-29T04:50:17.291Z,8.50
2023-04-29T04:54:20.801Z,8.60
2023-04-29T04:58:26.868Z,8.60
2023-04-29T05:02:30.440Z,8.60
2023-04-29T05:06:33.955Z,8.70
2023-04-29T05:10:38.077Z,8.90
2023-04-29T05:14:42.766Z,9.10
2023-04-29T05:18:47.265Z,9.20
2023-04-29T05:22:50.878Z,9.40
2023-04-29T05:26:54.311Z,9.60
2023-04-29T05:31:00.763Z,9.80
2023-04-29T05:35:06.679Z,10.00
2023-04-29T05:39:10.607Z,10.30
2023-04-29T05:43:13.970Z,10.50
2023-04-29T05:47:18.628Z,10.70
2023-04-29T05:51:21.977Z,11.00
2023-04-29T05:55:25.684Z,11.30
2023-04-29T05:59:28.989Z,11.60
2023-04-29T06:03:34.735Z,11.90
2023-04-29T06:07:38.675Z,12.10
2023-04-29T06:11:44.397Z,12.40
2023-04-29T06:15:47.717Z,12.60
2023-04-29T06:19:52.807Z,12.60
2023-04-29T06:23:56.732Z,12.80
2023-04-29T06:27:59.907Z,13.20
2023-04-29T06:32:03.449Z,13.50
2023-04-29T06:36:08.974Z,13.70
2023-04-29T06:40:14.053Z,13.80
2023-04-29T06:44:18.104Z,14.10
2023-04-29T06:48:21.569Z,14.20
2023-04-29T06:52:26.195Z,14.20
2023-04-29T06:56:29.467Z,14.50
2023-04-29T07:00:32.729Z,14.80
2023-04-29T07:04:37.729Z,15.10
2023-04-29T07:08:42.652Z,15.40
2023-04-29T07:12:46.011Z,15.70
2023-04-29T07:16:49.760Z,15.60
2023-04-29T07:20:53.641Z,15.80
2023-04-29T07:24:59.753Z,16.20
2023-04-29T07:29:02.867Z,16.20
2023-04-29T07:33:06.342Z,16.50
2023-04-29T07:37:09.899Z,16.90
2023-04-29T07:41:14.420Z,17.20
2023-04-29T07:45:17.799Z,17.20
2023-04-29T07:49:21.156Z,16.70
2023-04-29T07:53:24.427Z,16.70
2023-04-29T07:57:29.163Z,16.40
2023-04-29T08:01:32.824Z,16.50
2023-04-29T08:05:36.622Z,16.90
2023-04-29T08:09:40.208Z,17.20
2023-04-29T08:13:44.859Z,17.30
2023-04-29T08:17:48.492Z,17.90
2023-04-29T08:21:52.226Z,18.80
2023-04-29T08:25:56.095Z,18.50
2023-04-29T08:30:00.860Z,18.30
2023-04-29T08:34:04.024Z,18.30
2023-04-29T08:38:07.941Z,18.20
2023-04-29T08:42:11.867Z,18.40
2023-04-29T08:46:18.783Z,18.90
2023-04-29T08:50:22.750Z,19.40
2023-04-29T08:54:26.351Z,19.30
2023-04-29T08:58:31.033Z,19.30
2023-04-29T09:02:42.671Z,19.50
2023-04-29T09:06:46.921Z,19.20
2023-04-29T09:10:50.488Z,21.00
2023-04-29T09:14:54.040Z,24.20
2023-04-29T09:18:59.005Z,24.20
2023-04-29T09:23:04.138Z,22.90
2023-04-29T09:27:08.132Z,22.70
2023-04-29T09:31:11.773Z,24.90
2023-04-29T09:35:27.222Z,26.40
2023-04-29T09:39:41.012Z,25.40
2023-04-29T09:43:44.250Z,25.40
2023-04-29T09:47:47.595Z,27.60
2023-04-29T09:51:56.414Z,27.30
2023-04-29T09:56:01.480Z,27.50
2023-04-29T10:00:05.216Z,29.10
2023-04-29T10:04:12.342Z,30.00
2023-04-29T10:08:17.070Z,30.00
2023-04-29T10:12:22.043Z,31.00
2023-04-29T10:16:30.560Z,30.10
2023-04-29T10:20:36.034Z,29.90
2023-04-29T10:24:45.872Z,30.10
2023-04-29T10:28:52.173Z,28.40
2023-04-29T10:32:57.255Z,27.00
2023-04-29T10:37:01.143Z,24.10
2023-04-29T10:41:12.945Z,23.40
2023-04-29T10:45:20.327Z,23.50
2023-04-29T10:49:25.503Z,26.30
2023-04-29T10:53:29.881Z,28.60
2023-04-29T10:57:34.755Z,28.50
2023-04-29T11:01:49.302Z,27.40
2023-04-29T11:06:10.488Z,25.40
2023-04-29T11:10:14.702Z,25.10
2023-04-29T11:14:25.296Z,23.70
2023-04-29T11:18:30.274Z,23.60
2023-04-29T11:22:34.579Z,23.60
2023-04-29T11:26:38.612Z,25.40
2023-04-29T11:30:44.177Z,27.50
2023-04-29T11:34:47.794Z,28.00
2023-04-29T11:38:51.213Z,29.30
2023-04-29T11:42:54.613Z,27.90
2023-04-29T11:47:04.666Z,26.20
2023-04-29T11:51:08.201Z,27.60
2023-04-29T11:55:21.106Z,28.00
2023-04-29T11:59:26.209Z,27.30
2023-04-29T12:03:30.898Z,25.80
2023-04-29T12:07:34.376Z,23.00
2023-04-29T12:11:39.312Z,20.90
2023-04-29T12:15:43.206Z,22.30
2023-04-29T12:19:49.333Z,25.00
2023-04-29T12:23:53.152Z,26.30
2023-04-29T12:28:03.209Z,29.10
2023-04-29T12:32:06.723Z,29.50
2023-04-29T12:36:19.520Z,31.20
2023-04-29T12:40:23.973Z,29.80
2023-04-29T12:44:27.922Z,30.00
2023-04-29T12:48:33.381Z,31.40
2023-04-29T12:52:38.632Z,32.90
2023-04-29T12:56:41.833Z,32.60
2023-04-29T13:00:45.171Z,32.70
2023-04-29T13:04:48.950Z,34.00
2023-04-29T13:08:53.897Z,33.10
2023-04-29T13:12:57.172Z,32.20
2023-04-29T13:17:01.171Z,31.80
2023-04-29T13:21:08.816Z,30.10
2023-04-29T13:25:13.951Z,27.30
2023-04-29T13:29:17.362Z,25.30
2023-04-29T13:33:20.787Z,24.00
2023-04-29T13:37:24.201Z,23.00
2023-04-29T13:41:32.684Z,22.40
2023-04-29T13:45:41.285Z,21.80
2023-04-29T13:50:10.008Z,21.30
2023-04-29T13:54:53.359Z,20.90
2023-04-29T14:02:45.792Z,20.00
2023-04-29T14:06:49.339Z,19.70
2023-04-29T14:10:52.777Z,19.70
2023-04-29T14:15:00.370Z,19.90
2023-04-29T14:19:04.307Z,20.00
2023-04-29T14:23:07.974Z,19.80
2023-04-29T14:27:11.664Z,19.50
2023-04-29T14:31:18.561Z,19.10
2023-04-29T14:35:23.202Z,19.10
2023-04-29T14:39:27.629Z,19.10
2023-04-29T14:43:31.200Z,19.30
2023-04-29T14:47:36.161Z,19.20
2023-04-29T14:51:39.971Z,18.60
2023-04-29T14:55:43.854Z,18.50
2023-04-29T14:59:47.727Z,18.70
2023-04-29T15:03:53.713Z,19.10
2023-04-29T15:07:58.958Z,19.60
2023-04-29T15:12:03.013Z,21.40
2023-04-29T15:16:08.008Z,23.30
2023-04-29T15:20:15.513Z,24.30
2023-04-29T15:24:21.061Z,23.80
2023-04-29T15:28:26.593Z,23.60
2023-04-29T15:32:33.966Z,23.20
2023-04-29T15:36:45.580Z,22.30
2023-04-29T15:40:52.381Z,21.60
2023-04-29T15:44:57.814Z,20.80
2023-04-29T15:49:05.740Z,20.80
2023-04-29T15:53:10.467Z,20.40
2023-04-29T15:57:16.454Z,19.70
2023-04-29T16:01:21.505Z,19.70
2023-04-29T16:05:28.058Z,19.90
2023-04-29T16:09:38.100Z,20.00
2023-04-29T16:13:41.999Z,20.00
2023-04-29T16:17:45.580Z,19.80
2023-04-29T16:21:48.980Z,19.70
2023-04-29T16:25:54.797Z,19.60
2023-04-29T16:29:58.704Z,19.20
2023-04-29T16:34:04.228Z,19.10
2023-04-29T16:38:10.333Z,19.00
2023-04-29T16:42:17.522Z,19.00
2023-04-29T16:46:20.957Z,18.90
2023-04-29T16:50:25.071Z,18.70
2023-04-29T16:54:28.884Z,18.80
2023-04-29T16:58:39.099Z,18.70
2023-04-29T17:02:43.265Z,18.60
2023-04-29T17:06:47.658Z,18.50
2023-04-29T17:10:51.402Z,18.30
2023-04-29T17:14:58.060Z,18.30
2023-04-29T17:19:02.602Z,18.30
2023-04-29T17:23:06.488Z,18.30
2023-04-29T17:27:11.917Z,18.20
2023-04-29T17:31:20.774Z,18.10
2023-04-29T17:35:25.716Z,18.10
2023-04-29T17:39:29.466Z,18.00
2023-04-29T17:43:35.710Z,17.80
2023-04-29T17:47:40.823Z,17.80
2023-04-29T17:51:47.758Z,17.60
2023-04-29T17:55:51.582Z,17.50
2023-04-29T17:59:58.745Z,17.30
2023-04-29T18:04:03.807Z,17.30
2023-04-29T18:08:08.287Z,17.20
2023-04-29T18:12:12.880Z,17.10
2023-04-29T18:16:16.408Z,16.90
2023-04-29T18:20:22.751Z,16.60
2023-04-29T18:24:30.000Z,16.20
2023-04-29T18:28:35.265Z,16.00
2023-04-29T18:32:43.241Z,15.70
2023-04-29T18:36:54.267Z,15.60
2023-04-29T18:40:57.691Z,15.40
2023-04-29T18:45:05.099Z,15.10
2023-04-29T18:49:16.050Z,14.80
2023-04-29T18:53:24.662Z,14.50
2023-04-29T18:57:32.804Z,14.20
2023-04-29T19:01:42.342Z,13.90
2023-04-29T19:05:53.784Z,13.70
2023-04-29T19:10:06.412Z,13.60
2023-04-29T19:18:36.505Z,13.30
2023-04-29T19:22:46.078Z,13.10
2023-04-29T19:26:57.289Z,12.90
2023-04-29T19:31:01.385Z,12.80
2023-04-29T19:35:05.579Z,12.70
2023-04-29T19:39:10.357Z,12.70
2023-04-29T19:43:17.082Z,12.70
2023-04-29T19:47:21.022Z,12.70
2023-04-29T19:51:27.339Z,12.90
2023-04-29T19:55:31.663Z,12.90
2023-04-29T19:59:37.997Z,13.10
2023-04-29T20:03:41.931Z,13.10
2023-04-29T20:07:45.534Z,13.40
2023-04-29T20:11:49.005Z,13.50
2023-04-29T20:15:55.050Z,13.70
2023-04-29T20:19:58.659Z,13.90
2023-04-29T20:24:02.013Z,14.10
2023-04-29T20:28:08.020Z,14.20
2023-04-29T20:32:15.821Z,14.20
2023-04-29T20:36:19.521Z,14.20
2023-04-29T20:40:22.988Z,14.20
2023-04-29T20:44:27.645Z,14.20
2023-04-29T20:48:33.727Z,14.00
2023-04-29T20:52:37.443Z,13.80
2023-04-29T20:56:40.852Z,13.50
2023-04-29T21:00:44.358Z,13.20
2023-04-29T21:04:49.459Z,12.90
2023-04-29T21:08:52.783Z,12.70
2023-04-29T21:12:55.987Z,12.40
2023-04-29T21:16:59.323Z,12.20
2023-04-29T21:21:03.914Z,12.00
2023-04-29T21:25:07.727Z,11.90
2023-04-29T21:29:11.124Z,11.90
2023-04-29T21:33:14.289Z,11.90
2023-04-29T21:37:19.015Z,11.80
2023-04-29T21:41:27.363Z,11.70
2023-04-29T21:45:31.022Z,11.60
2023-04-29T21:49:34.322Z,11.60
2023-04-29T21:53:39.248Z,11.40
2023-04-29T21:57:44.849Z,11.30
2023-04-29T22:02:00.251Z,11.20
2023-04-29T22:06:03.733Z,11.10
2023-04-29T22:10:09.690Z,11.00
2023-04-29T22:14:13.167Z,10.90
2023-04-29T22:18:16.337Z,10.70
2023-04-29T22:22:19.662Z,10.50
2023-04-29T22:26:25.582Z,10.40
2023-04-29T22:30:29.159Z,10.40
2023-04-29T22:34:32.242Z,10.30
2023-04-29T22:38:37.478Z,10.20
2023-04-29T22:42:43.047Z,10.10
2023-04-29T22:46:46.424Z,10.00
2023-04-29T22:50:56.655Z,9.90
2023-04-29T22:55:00.519Z,9.70
2023-04-29T22:59:05.280Z,9.60
2023-04-29T23:03:09.693Z,9.60
2023-04-29T23:07:15.240Z,9.60
2023-04-29T23:11:18.491Z,9.50
2023-04-29T23:15:23.344Z,9.40
2023-04-29T23:19:26.964Z,9.30
2023-04-29T23:23:30.244Z,9.30
2023-04-29T23:27:33.403Z,9.20
2023-04-29T23:31:38.070Z,9.10
2023-04-29T23:35:41.466Z,9.10
2023-04-29T23:39:44.726Z,9.20
2023-04-29T23:43:48.348Z,9.20
2023-04-29T23:47:53.075Z,9.20
2023-04-29T23:51:56.366Z,9.20
2023-04-29T23:55:59.581Z,9.30
